Time;durP1;ratioP1;P1;durP2;ratioP2;P2;SDS_P1;SDS_P2;PMS_P1;PMS_P2;Temp;Humidity;BMP_temperature;BMP_pressure;BME280_temperature;BME280_humidity;BME280_pressure;Samples;Min_cycle;Max_cycle;Signal;HPM_P1;HPM_P2
2021/11/18 00:06:10;;;;;;;15.32;3.40;;;5.70;99.90;;;;;;5058149;28;20055;-92
2021/11/18 00:12:21;;;;;;;20.83;3.63;;;5.60;99.90;;;;;;5056070;28;20055;-92
2021/11/18 00:14:55;;;;;;;17.85;3.10;;;5.60;99.90;;;;;;5068872;28;20126;-92
2021/11/18 00:21:26;;;;;;;15.93;2.60;;;5.50;99.90;;;;;;5077403;28;20098;-93
2021/11/18 00:24:02;;;;;;;17.48;2.75;;;5.50;99.90;;;;;;5075860;28;20053;-92
2021/11/18 00:30:22;;;;;;;19.92;3.40;;;5.50;99.90;;;;;;5078798;28;20035;-94
2021/11/18 00:36:43;;;;;;;11.07;2.45;;;5.50;99.90;;;;;;5083325;28;20123;-94
2021/11/18 00:39:14;;;;;;;23.83;2.35;;;5.50;99.90;;;;;;5080517;28;20098;-94
2021/11/18 00:41:48;;;;;;;25.10;3.33;;;5.50;99.90;;;;;;5077827;28;20420;-93
2021/11/18 00:44:19;;;;;;;17.88;3.15;;;5.50;99.90;;;;;;5061523;28;20056;-93
2021/11/18 00:46:48;;;;;;;16.50;2.83;;;5.60;99.90;;;;;;5079077;28;20072;-93
2021/11/18 00:52:57;;;;;;;20.48;3.13;;;5.70;99.90;;;;;;5078741;28;20035;-93
2021/11/18 00:55:27;;;;;;;10.38;2.03;;;5.70;99.90;;;;;;5078910;28;20052;-94
2021/11/18 01:01:52;;;;;;;17.48;3.65;;;5.80;99.90;;;;;;5078235;28;20527;-93
2021/11/18 01:04:27;;;;;;;27.58;3.22;;;5.80;99.90;;;;;;5077473;28;20398;-93
2021/11/18 01:07:21;;;;;;;15.70;2.58;;;5.90;99.90;;;;;;5077283;28;20056;-94
2021/11/18 01:09:54;;;;;;;25.00;3.72;;;5.90;99.90;;;;;;5078520;28;20056;-93
2021/11/18 01:16:18;;;;;;;23.73;3.65;;;5.90;99.90;;;;;;5077967;28;20051;-93
2021/11/18 01:22:40;;;;;;;16.17;2.65;;;5.90;99.90;;;;;;5078292;28;20138;-92
2021/11/18 01:25:09;;;;;;;15.25;2.22;;;6.00;99.90;;;;;;5077392;28;20048;-93
2021/11/18 01:27:36;;;;;;;19.48;2.50;;;6.00;99.90;;;;;;5077315;28;20139;-93
2021/11/18 01:33:45;;;;;;;15.88;2.65;;;6.00;99.90;;;;;;5078562;28;20035;-93
2021/11/18 01:39:59;;;;;;;17.83;2.45;;;6.00;99.90;;;;;;5079979;28;20050;-93
2021/11/18 01:46:16;;;;;;;;;;;6.00;99.90;;;;;;5100693;28;20122;-93
2021/11/18 01:48:48;;;;;;;25.45;2.60;;;5.90;99.90;;;;;;5100734;28;19939;-93
2021/11/18 01:51:17;;;;;;;20.15;2.58;;;6.00;99.90;;;;;;5100308;28;20035;-93
2021/11/18 01:57:35;;;;;;;17.90;3.08;;;6.00;99.90;;;;;;5100450;28;20067;-92
2021/11/18 02:00:11;;;;;;;18.80;2.60;;;6.00;99.90;;;;;;5092001;28;20041;-93
2021/11/18 02:02:39;;;;;;;10.77;2.50;;;6.00;99.90;;;;;;5079784;28;20067;-93
2021/11/18 02:05:18;;;;;;;21.60;2.70;;;6.00;99.90;;;;;;5083350;28;20048;-93
2021/11/18 02:07:47;;;;;;;22.63;3.03;;;6.00;99.90;;;;;;5080421;28;20072;-93
2021/11/18 02:10:27;;;;;;;17.23;2.55;;;6.00;99.90;;;;;;5079069;28;20056;-94
2021/11/18 02:20:31;;;;;;;;;;;6.20;99.90;;;;;;5077988;28;20031;-94
2021/11/18 02:23:08;;;;;;;23.63;2.15;;;6.10;99.90;;;;;;5077573;28;19970;-93
2021/11/18 02:25:48;;;;;;;17.13;2.15;;;6.10;99.90;;;;;;5076670;28;20466;-93
2021/11/18 02:32:08;;;;;;;17.63;2.28;;;6.00;99.90;;;;;;5076935;28;20503;-93
2021/11/18 02:38:26;;;;;;;18.08;3.05;;;6.00;99.90;;;;;;5077210;28;20078;-93
2021/11/18 02:40:57;;;;;;;21.08;2.22;;;6.00;99.90;;;;;;5075971;28;20052;-93
2021/11/18 02:47:19;;;;;;;18.63;3.03;;;6.10;99.90;;;;;;5076914;28;20122;-93
2021/11/18 02:49:52;;;;;;;16.47;2.63;;;6.20;99.90;;;;;;5059529;28;20100;-94
2021/11/18 02:52:28;;;;;;;20.95;2.80;;;6.30;99.90;;;;;;5055639;28;20298;-93
2021/11/18 02:58:10;;;;;;;19.30;2.65;;;6.30;99.90;;;;;;5055807;28;20053;-93
2021/11/18 03:00:42;;;;;;;15.48;2.33;;;6.30;99.90;;;;;;5055306;28;20045;-93
2021/11/18 03:03:10;;;;;;;14.98;2.20;;;6.40;99.90;;;;;;5055937;28;20473;-93
2021/11/18 03:05:49;;;;;;;15.10;1.95;;;6.40;99.90;;;;;;5055341;28;20152;-92
2021/11/18 03:12:07;;;;;;;20.35;2.38;;;6.40;99.90;;;;;;5056077;28;20435;-93
2021/11/18 03:14:34;;;;;;;21.55;2.50;;;6.40;99.90;;;;;;5055500;28;20045;-93
2021/11/18 03:17:01;;;;;;;18.67;2.70;;;6.30;99.90;;;;;;5055423;28;20405;-94
2021/11/18 03:19:57;;;;;;;12.13;2.10;;;6.30;99.90;;;;;;5056370;28;20099;-93
2021/11/18 03:22:32;;;;;;;13.68;1.80;;;6.40;99.90;;;;;;5054239;28;20098;-93
2021/11/18 03:25:04;;;;;;;19.30;2.28;;;6.40;99.90;;;;;;5054624;28;20509;-93
2021/11/18 03:27:34;;;;;;;12.52;1.92;;;6.40;99.90;;;;;;5055171;28;20057;-93
2021/11/18 03:34:19;;;;;;;21.85;3.80;;;6.30;99.90;;;;;;5055897;28;20031;-93
2021/11/18 03:36:47;;;;;;;25.52;4.05;;;6.20;99.90;;;;;;5055590;28;20049;-93
2021/11/18 03:39:17;;;;;;;9.68;2.42;;;6.20;99.90;;;;;;5059437;28;20136;-91
2021/11/18 03:42:07;;;;;;;15.45;2.22;;;6.10;99.90;;;;;;5051288;28;20061;-91
2021/11/18 03:44:50;;;;;;;18.50;2.22;;;6.10;99.90;;;;;;5046695;28;20405;-91
2021/11/18 03:47:37;;;;;;;17.65;2.45;;;6.00;99.90;;;;;;5060081;28;20107;-90
2021/11/18 03:50:31;;;;;;;17.20;2.47;;;6.00;99.90;;;;;;5053822;28;20139;-91
2021/11/18 03:52:59;;;;;;;24.42;2.55;;;6.00;99.90;;;;;;5058454;28;20053;-90
2021/11/18 03:55:29;;;;;;;19.92;2.65;;;6.00;99.90;;;;;;5053394;28;20119;-90
2021/11/18 03:58:06;;;;;;;14.10;2.63;;;6.00;99.90;;;;;;5055842;28;20045;-89
2021/11/18 04:00:38;;;;;;;22.67;3.00;;;6.00;99.90;;;;;;5072463;28;20041;-89
2021/11/18 04:04:08;;;;;;;14.82;2.95;;;6.00;99.90;;;;;;5055345;28;20048;-90
2021/11/18 04:06:43;;;;;;;23.20;2.88;;;6.00;99.90;;;;;;5070359;28;20063;-90
2021/11/18 04:09:12;;;;;;;18.92;3.30;;;6.00;99.90;;;;;;5071994;28;20083;-91
2021/11/18 04:11:52;;;;;;;25.48;3.13;;;6.10;99.90;;;;;;5062090;28;20063;-91
2021/11/18 04:14:50;;;;;;;20.83;3.20;;;6.10;99.90;;;;;;5054246;28;20456;-90
2021/11/18 04:17:19;;;;;;;25.55;2.78;;;6.10;99.90;;;;;;5054270;28;20053;-90
2021/11/18 04:20:10;;;;;;;23.88;2.90;;;6.10;99.90;;;;;;5054449;28;20135;-91
2021/11/18 04:22:47;;;;;;;24.20;3.30;;;6.10;99.90;;;;;;5035840;28;20099;-91
2021/11/18 04:25:22;;;;;;;24.88;2.92;;;6.00;99.90;;;;;;5079079;28;20079;-90
2021/11/18 04:27:51;;;;;;;14.98;2.63;;;6.00;99.90;;;;;;5064525;28;20060;-91
2021/11/18 04:30:25;;;;;;;20.65;3.53;;;6.00;99.90;;;;;;5037826;28;20079;-90
2021/11/18 04:32:58;;;;;;;24.85;3.83;;;6.10;99.90;;;;;;5053925;28;20057;-91
2021/11/18 04:35:25;;;;;;;35.22;3.88;;;6.20;99.90;;;;;;5054249;28;20048;-90
2021/11/18 04:37:54;;;;;;;17.58;2.90;;;6.20;99.90;;;;;;5054198;28;20041;-89
2021/11/18 04:40:22;;;;;;;20.13;3.30;;;6.20;99.90;;;;;;5037162;28;20049;-91
2021/11/18 04:42:52;;;;;;;32.50;4.57;;;6.20;99.90;;;;;;5053691;28;20056;-90
2021/11/18 04:45:24;;;;;;;19.25;3.13;;;6.00;99.90;;;;;;5037144;28;20049;-89
2021/11/18 04:47:51;;;;;;;15.35;2.92;;;6.00;99.90;;;;;;5070311;28;20135;-90
2021/11/18 04:50:20;;;;;;;26.30;3.10;;;5.90;99.90;;;;;;5061361;28;20060;-91
2021/11/18 04:52:48;;;;;;;15.95;2.92;;;5.90;99.90;;;;;;5054383;28;20057;-90
2021/11/18 04:55:19;;;;;;;14.30;3.03;;;5.90;99.90;;;;;;5058863;28;20482;-91
2021/11/18 04:57:49;;;;;;;21.58;3.85;;;5.80;99.90;;;;;;5073577;28;20048;-89
2021/11/18 05:00:30;;;;;;;19.63;2.72;;;5.90;99.90;;;;;;5071927;28;20082;-89
2021/11/18 05:03:00;;;;;;;23.15;3.40;;;5.80;99.90;;;;;;5073714;28;20087;-91
2021/11/18 05:05:33;;;;;;;16.48;3.17;;;5.80;99.90;;;;;;5075074;28;20048;-90
2021/11/18 05:08:02;;;;;;;24.40;3.25;;;5.70;99.90;;;;;;5090708;28;20052;-90
2021/11/18 05:10:39;;;;;;;31.27;4.63;;;5.70;99.90;;;;;;5073191;28;20064;-90
2021/11/18 05:13:30;;;;;;;22.00;4.00;;;5.70;99.90;;;;;;5043962;28;20113;-90
2021/11/18 05:15:59;;;;;;;36.20;3.75;;;5.70;99.90;;;;;;5056364;28;20053;-90
2021/11/18 05:18:40;;;;;;;22.75;4.22;;;5.60;99.90;;;;;;5034896;28;20045;-89
2021/11/18 05:21:29;;;;;;;40.60;4.15;;;5.60;99.90;;;;;;5053817;28;20056;-90
2021/11/18 05:24:06;;;;;;;25.73;4.03;;;5.60;99.90;;;;;;5054328;28;20490;-89
2021/11/18 05:26:33;;;;;;;15.43;3.03;;;5.60;99.90;;;;;;5056098;28;20127;-90
2021/11/18 05:29:00;;;;;;;26.45;3.78;;;5.70;99.90;;;;;;5056810;28;20087;-90
2021/11/18 05:32:03;;;;;;;26.08;4.22;;;5.70;99.90;;;;;;5056206;28;20501;-90
2021/11/18 05:34:41;;;;;;;31.38;5.47;;;5.80;99.90;;;;;;5056741;28;20110;-91
2021/11/18 05:37:10;;;;;;;25.63;4.53;;;5.80;99.90;;;;;;5057010;28;20052;-90
2021/11/18 05:39:38;;;;;;;26.90;3.72;;;5.90;99.90;;;;;;5057625;28;20055;-91
2021/11/18 05:42:24;;;;;;;25.85;4.50;;;5.90;99.90;;;;;;5057062;28;20079;-90
2021/11/18 05:44:51;;;;;;;29.58;4.57;;;5.90;99.90;;;;;;5056906;28;20128;-90
2021/11/18 05:47:20;;;;;;;33.58;5.07;;;5.90;99.90;;;;;;5056568;28;20092;-87
2021/11/18 05:50:11;;;;;;;35.75;4.30;;;5.90;99.90;;;;;;5054933;28;20426;-88
2021/11/18 05:52:39;;;;;;;24.50;4.55;;;5.90;99.90;;;;;;5055168;28;20076;-87
2021/11/18 05:55:28;;;;;;;25.05;4.72;;;5.80;99.90;;;;;;5061960;28;20071;-88
2021/11/18 05:57:57;;;;;;;34.67;5.85;;;5.90;99.90;;;;;;5053494;28;20052;-87
2021/11/18 06:00:31;;;;;;;38.35;5.30;;;5.90;99.90;;;;;;5054495;28;20128;-88
2021/11/18 06:03:11;;;;;;;25.98;4.95;;;5.90;99.90;;;;;;5054061;28;20098;-87
2021/11/18 06:05:38;;;;;;;41.10;5.50;;;6.00;99.90;;;;;;5060507;28;20482;-86
2021/11/18 06:08:19;;;;;;;38.58;5.95;;;6.00;99.90;;;;;;5073001;28;20102;-88
2021/11/18 06:10:47;;;;;;;42.83;5.30;;;6.00;99.90;;;;;;5054575;28;20057;-88
2021/11/18 06:13:13;;;;;;;22.65;4.30;;;6.10;99.90;;;;;;5052439;28;20063;-87
2021/11/18 06:15:40;;;;;;;23.13;4.80;;;6.10;99.90;;;;;;5058383;28;20076;-87
2021/11/18 06:18:07;;;;;;;24.90;5.15;;;6.20;99.90;;;;;;5066899;28;20497;-87
2021/11/18 06:20:37;;;;;;;36.65;5.95;;;6.30;99.90;;;;;;5062353;28;20149;-88
2021/11/18 06:23:06;;;;;;;29.50;5.63;;;6.30;99.90;;;;;;5072505;28;20079;-87
2021/11/18 06:25:35;;;;;;;23.20;6.00;;;6.30;99.90;;;;;;5062342;28;20080;-87
2021/11/18 06:28:03;;;;;;;37.83;6.50;;;6.30;99.90;;;;;;5052768;28;20092;-88
2021/11/18 06:30:45;;;;;;;22.45;6.03;;;6.30;99.90;;;;;;5052655;28;20083;-88
2021/11/18 06:33:13;;;;;;;31.20;6.13;;;6.30;99.90;;;;;;5080993;28;20197;-87
2021/11/18 06:35:41;;;;;;;30.42;6.60;;;6.20;99.90;;;;;;5061968;28;20113;-89
2021/11/18 06:38:28;;;;;;;22.08;6.00;;;6.30;99.90;;;;;;5064216;28;20072;-87
2021/11/18 06:40:56;;;;;;;33.33;7.57;;;6.30;99.90;;;;;;5058123;28;20044;-89
2021/11/18 06:43:26;;;;;;;27.48;6.60;;;6.40;99.90;;;;;;5055388;28;20124;-89
2021/11/18 06:45:53;;;;;;;36.80;7.93;;;6.50;99.90;;;;;;5054908;28;20100;-86
2021/11/18 06:48:30;;;;;;;32.15;6.97;;;6.60;99.90;;;;;;5055023;28;20045;-86
2021/11/18 06:51:05;;;;;;;20.38;6.80;;;6.70;99.90;;;;;;5067779;28;20092;-84
2021/11/18 06:53:33;;;;;;;38.92;8.48;;;6.80;99.90;;;;;;5076622;28;20044;-86
2021/11/18 06:56:00;;;;;;;39.75;9.10;;;6.90;99.90;;;;;;5088750;28;20055;-85
2021/11/18 06:58:27;;;;;;;35.67;9.00;;;7.00;99.90;;;;;;5088971;28;20048;-86
2021/11/18 07:00:54;;;;;;;39.22;9.48;;;7.10;99.90;;;;;;5085060;28;20044;-86
2021/11/18 07:03:21;;;;;;;32.63;9.57;;;7.20;99.90;;;;;;5075029;28;20053;-85
2021/11/18 07:05:47;;;;;;;37.08;10.73;;;7.30;99.90;;;;;;5056800;28;20087;-86
2021/11/18 07:08:14;;;;;;;46.58;10.57;;;7.30;99.90;;;;;;5066438;28;20064;-85
2021/11/18 07:10:43;;;;;;;37.35;10.35;;;7.40;99.90;;;;;;5060303;28;20106;-86
2021/11/18 07:13:12;;;;;;;45.50;11.93;;;7.50;99.90;;;;;;5053053;28;20506;-86
2021/11/18 07:15:39;;;;;;;36.83;10.90;;;7.60;99.90;;;;;;5059848;28;20079;-85
2021/11/18 07:18:08;;;;;;;43.88;12.38;;;7.60;99.90;;;;;;5063512;28;20037;-86
2021/11/18 07:20:35;;;;;;;54.65;11.57;;;7.70;99.90;;;;;;5065408;28;20070;-86
2021/11/18 07:23:02;;;;;;;42.92;10.90;;;7.80;99.90;;;;;;5052389;28;20543;-85
2021/11/18 07:25:29;;;;;;;40.92;10.77;;;7.80;99.90;;;;;;5063550;28;20052;-91
2021/11/18 07:27:56;;;;;;;45.67;11.18;;;7.90;99.90;;;;;;5074756;28;20055;-92
2021/11/18 07:30:24;;;;;;;43.50;11.00;;;7.90;99.90;;;;;;5059896;28;20488;-92
2021/11/18 07:32:52;;;;;;;41.03;12.05;;;8.00;99.90;;;;;;5054253;28;20754;-92
2021/11/18 07:35:20;;;;;;;35.30;11.98;;;8.00;99.90;;;;;;5054345;28;20134;-91
2021/11/18 07:37:46;;;;;;;44.25;10.57;;;8.10;99.90;;;;;;5057959;28;20037;-92
2021/11/18 07:40:16;;;;;;;52.17;12.65;;;8.10;99.90;;;;;;5064048;28;20088;-91
2021/11/18 07:42:44;;;;;;;39.80;10.95;;;8.10;99.90;;;;;;5054837;28;20076;-92
2021/11/18 07:45:13;;;;;;;49.83;12.15;;;8.20;99.90;;;;;;5053528;28;20052;-91
2021/11/18 07:47:39;;;;;;;43.58;10.88;;;8.20;99.90;;;;;;5053771;28;20049;-92
2021/11/18 07:50:08;;;;;;;58.97;11.88;;;8.30;99.90;;;;;;5054063;28;20048;-92
2021/11/18 07:52:36;;;;;;;39.50;11.75;;;8.40;99.90;;;;;;5054337;28;20056;-92
2021/11/18 07:55:06;;;;;;;55.38;13.13;;;8.40;99.90;;;;;;5054070;28;20493;-92
2021/11/18 07:57:33;;;;;;;44.38;10.90;;;8.50;99.90;;;;;;5054097;28;20053;-92
2021/11/18 08:00:00;;;;;;;42.95;11.45;;;8.60;99.90;;;;;;5054049;28;20084;-91
2021/11/18 08:02:27;;;;;;;36.28;11.43;;;8.60;99.90;;;;;;5053758;28;20103;-87
2021/11/18 08:04:54;;;;;;;38.85;11.73;;;8.60;99.90;;;;;;5055635;28;20052;-91
2021/11/18 08:07:21;;;;;;;42.28;11.23;;;8.80;99.90;;;;;;5052761;28;20091;-92
2021/11/18 08:09:52;;;;;;;42.10;14.32;;;8.90;99.90;;;;;;5053274;28;20053;-92
2021/11/18 08:12:20;;;;;;;44.45;11.38;;;8.90;99.90;;;;;;5052834;28;20052;-92
2021/11/18 08:14:46;;;;;;;45.25;11.73;;;9.00;99.90;;;;;;5055724;28;20079;-92
2021/11/18 08:17:14;;;;;;;41.47;10.73;;;9.00;99.90;;;;;;5072590;28;20488;-92
2021/11/18 08:19:40;;;;;;;47.22;10.70;;;9.00;99.90;;;;;;5062222;28;20052;-91
2021/11/18 08:22:08;;;;;;;48.20;10.80;;;9.00;99.90;;;;;;5067285;28;20048;-91
2021/11/18 08:24:44;;;;;;;38.42;11.27;;;9.00;99.90;;;;;;5053347;28;20082;-91
2021/11/18 08:27:11;;;;;;;45.35;11.10;;;9.00;99.90;;;;;;5053486;28;20053;-91
2021/11/18 08:29:38;;;;;;;52.95;13.48;;;9.10;99.90;;;;;;5054385;28;20049;-92
2021/11/18 08:32:06;;;;;;;50.28;12.38;;;9.20;99.90;;;;;;5073409;28;20413;-92
2021/11/18 08:34:34;;;;;;;40.40;12.05;;;9.30;99.90;;;;;;5064303;28;20069;-92
2021/11/18 08:37:02;;;;;;;44.20;10.93;;;9.40;99.90;;;;;;5053487;28;20053;-92
2021/11/18 08:39:30;;;;;;;42.75;10.85;;;9.40;99.90;;;;;;5053985;28;20099;-91
2021/11/18 08:42:00;;;;;;;46.83;11.50;;;9.40;99.90;;;;;;5053350;28;20049;-91
2021/11/18 08:44:29;;;;;;;37.03;10.75;;;9.60;99.90;;;;;;5054379;28;20071;-91
2021/11/18 08:47:14;;;;;;;30.77;9.52;;;9.50;99.90;;;;;;5053205;28;20132;-92
2021/11/18 08:49:41;;;;;;;43.92;11.20;;;9.60;99.90;;;;;;5053135;28;20076;-87
2021/11/18 08:52:11;;;;;;;44.03;10.45;;;9.50;99.90;;;;;;5051461;28;20478;-86
2021/11/18 08:54:41;;;;;;;40.13;13.07;;;9.50;99.90;;;;;;5051181;28;20045;-86
2021/11/18 08:57:10;;;;;;;35.40;11.27;;;9.50;99.90;;;;;;5052962;28;20095;-87
2021/11/18 08:59:38;;;;;;;32.90;11.52;;;9.60;99.90;;;;;;5053976;28;20083;-86
2021/11/18 09:02:10;;;;;;;32.50;9.63;;;9.70;99.90;;;;;;5063210;28;20131;-86
2021/11/18 09:04:38;;;;;;;39.30;11.18;;;10.10;99.90;;;;;;5056403;28;20048;-86
2021/11/18 09:07:05;;;;;;;42.42;10.10;;;10.60;99.90;;;;;;5053580;28;20049;-85
2021/11/18 09:09:32;;;;;;;32.40;9.75;;;11.10;99.90;;;;;;5054552;28;20088;-86
2021/11/18 09:12:00;;;;;;;40.90;10.77;;;11.20;99.90;;;;;;5053359;28;20511;-86
2021/11/18 09:14:29;;;;;;;31.90;8.77;;;11.30;99.90;;;;;;5055212;28;20137;-87
2021/11/18 09:16:57;;;;;;;36.28;9.25;;;11.30;99.90;;;;;;5054646;28;20083;-86
2021/11/18 09:19:30;;;;;;;36.95;10.30;;;11.40;99.90;;;;;;5052465;28;20079;-86
2021/11/18 09:21:59;;;;;;;35.08;9.80;;;11.40;99.90;;;;;;5055007;28;20075;-86
2021/11/18 09:24:34;;;;;;;37.47;8.77;;;11.40;99.90;;;;;;5059606;28;20635;-87
2021/11/18 09:27:07;;;;;;;36.97;9.57;;;11.40;99.90;;;;;;5033428;28;20140;-86
2021/11/18 09:29:34;;;;;;;34.15;8.55;;;11.20;99.90;;;;;;5036716;28;20285;-86
2021/11/18 09:32:01;;;;;;;35.92;10.65;;;11.10;99.90;;;;;;5059660;28;20048;-86
2021/11/18 09:34:29;;;;;;;32.25;8.45;;;10.90;99.90;;;;;;5053298;28;20056;-86
2021/11/18 09:36:57;;;;;;;38.47;8.57;;;10.80;99.90;;;;;;5054853;28;20509;-86
2021/11/18 09:39:25;;;;;;;44.92;9.52;;;10.70;99.90;;;;;;5052529;28;20057;-86
2021/11/18 09:42:02;;;;;;;34.20;9.68;;;10.60;99.90;;;;;;5052221;28;20134;-86
2021/11/18 09:44:32;;;;;;;30.75;8.93;;;10.60;99.90;;;;;;5051988;28;20660;-86
2021/11/18 09:47:20;;;;;;;31.98;8.95;;;10.60;99.90;;;;;;5051910;28;20123;-86
2021/11/18 09:50:18;;;;;;;28.88;8.70;;;10.60;99.90;;;;;;5055924;28;20072;-86
2021/11/18 09:53:05;;;;;;;47.92;9.63;;;10.70;99.90;;;;;;5062953;28;20076;-86
2021/11/18 09:55:51;;;;;;;34.20;9.90;;;10.80;99.90;;;;;;5058756;28;20091;-87
2021/11/18 09:59:11;;;;;;;44.35;10.43;;;10.80;99.90;;;;;;5072140;28;20082;-85
2021/11/18 10:02:17;;;;;;;30.40;8.55;;;10.70;99.90;;;;;;5035788;28;20045;-82
2021/11/18 10:04:56;;;;;;;36.83;8.82;;;10.70;99.90;;;;;;5051263;28;20068;-86
2021/11/18 10:07:36;;;;;;;33.63;8.25;;;10.70;99.90;;;;;;5070255;28;20451;-86
2021/11/18 10:10:23;;;;;;;36.42;9.52;;;10.70;99.90;;;;;;5062258;28;20102;-86
2021/11/18 10:12:59;;;;;;;55.83;10.77;;;10.70;99.90;;;;;;5050291;28;20053;-85
2021/11/18 10:15:30;;;;;;;36.35;9.68;;;10.70;99.90;;;;;;5057231;28;20457;-86
2021/11/18 10:18:13;;;;;;;40.03;8.60;;;10.80;99.90;;;;;;5042102;28;20119;-85
2021/11/18 10:20:43;;;;;;;32.67;8.93;;;10.90;99.90;;;;;;5075313;28;20389;-85
2021/11/18 10:23:14;;;;;;;45.38;8.27;;;10.90;99.90;;;;;;5050543;28;20045;-86
2021/11/18 10:25:48;;;;;;;32.90;9.52;;;10.80;99.90;;;;;;5060608;28;20075;-86
2021/11/18 10:28:21;;;;;;;41.95;9.20;;;10.70;99.90;;;;;;5072239;28;20088;-85
2021/11/18 10:31:26;;;;;;;32.40;10.15;;;10.70;99.90;;;;;;5070085;28;20105;-85
2021/11/18 10:34:13;;;;;;;33.55;8.75;;;10.70;99.90;;;;;;5052182;28;20576;-85
2021/11/18 10:37:05;;;;;;;33.92;7.85;;;10.80;99.90;;;;;;5052354;28;20541;-86
2021/11/18 10:39:46;;;;;;;37.15;9.55;;;10.90;99.90;;;;;;5052361;28;20132;-86
2021/11/18 10:42:18;;;;;;;43.35;10.65;;;10.90;99.90;;;;;;5051360;28;20048;-85
2021/11/18 10:44:56;;;;;;;28.58;8.18;;;11.00;99.90;;;;;;5052519;28;20557;-85
2021/11/18 10:47:38;;;;;;;41.78;8.45;;;11.10;99.90;;;;;;5032242;28;20049;-87
2021/11/18 10:50:33;;;;;;;44.45;9.68;;;11.10;99.90;;;;;;5032822;28;20045;-85
2021/11/18 10:53:22;;;;;;;41.17;9.77;;;11.20;99.90;;;;;;5044824;28;20048;-84
2021/11/18 10:56:11;;;;;;;37.20;8.63;;;11.10;99.90;;;;;;5051717;28;20053;-86
2021/11/18 10:58:44;;;;;;;31.20;8.25;;;11.10;99.90;;;;;;5052805;28;20049;-86
2021/11/18 11:01:35;;;;;;;39.20;10.32;;;11.20;99.90;;;;;;5051631;28;20082;-86
2021/11/18 11:04:08;;;;;;;28.45;9.88;;;11.20;99.90;;;;;;5044956;28;20425;-86
2021/11/18 11:06:45;;;;;;;50.13;11.85;;;11.10;99.90;;;;;;5047933;28;20106;-86
2021/11/18 11:09:14;;;;;;;32.17;9.70;;;11.10;99.90;;;;;;5033485;28;20049;-86
2021/11/18 11:11:59;;;;;;;30.45;9.75;;;11.00;99.90;;;;;;5062892;28;20052;-86
2021/11/18 11:14:57;;;;;;;41.35;10.75;;;10.90;99.90;;;;;;5053308;28;20069;-86
2021/11/18 11:17:34;;;;;;;39.47;11.60;;;10.90;99.90;;;;;;5072636;28;20143;-85
2021/11/18 11:20:21;;;;;;;46.40;9.80;;;10.90;99.90;;;;;;5066084;28;20186;-85
2021/11/18 11:23:16;;;;;;;40.55;10.27;;;10.80;99.90;;;;;;5051854;28;20073;-86
2021/11/18 11:26:27;;;;;;;39.85;10.05;;;10.80;99.90;;;;;;5051846;28;20084;-86
2021/11/18 11:29:00;;;;;;;38.17;10.75;;;10.70;99.90;;;;;;5051198;28;20142;-85
2021/11/18 11:32:04;;;;;;;43.08;12.43;;;10.70;99.90;;;;;;5051654;28;20057;-86
2021/11/18 11:34:55;;;;;;;50.10;11.32;;;10.70;99.90;;;;;;5048026;28;20064;-85
2021/11/18 11:37:42;;;;;;;42.40;12.38;;;10.60;99.90;;;;;;5051530;28;20139;-84
2021/11/18 11:40:24;;;;;;;43.30;12.55;;;10.60;99.90;;;;;;5052515;28;20041;-85
2021/11/18 11:42:59;;;;;;;40.75;12.60;;;10.60;99.90;;;;;;5051040;28;20067;-86
2021/11/18 11:45:49;;;;;;;39.17;11.18;;;10.60;99.90;;;;;;5051590;28;20084;-85
2021/11/18 11:48:25;;;;;;;44.08;11.57;;;10.60;99.90;;;;;;5051263;28;20068;-85
2021/11/18 11:50:52;;;;;;;42.47;11.38;;;10.60;99.90;;;;;;5050922;28;20081;-85
2021/11/18 11:53:40;;;;;;;39.05;12.68;;;10.60;99.90;;;;;;5051447;28;20048;-85
2021/11/18 11:56:36;;;;;;;50.15;11.80;;;10.60;99.90;;;;;;5061410;28;20480;-85
2021/11/18 11:59:20;;;;;;;44.10;12.68;;;10.60;99.90;;;;;;5055288;28;20076;-85
2021/11/18 12:01:59;;;;;;;46.22;13.02;;;10.60;99.90;;;;;;5050231;28;20049;-86
2021/11/18 12:04:42;;;;;;;34.92;12.68;;;10.60;99.90;;;;;;5051237;28;20064;-85
2021/11/18 12:07:26;;;;;;;47.50;12.90;;;10.70;99.90;;;;;;5052315;28;20056;-85
2021/11/18 12:10:35;;;;;;;44.15;12.85;;;10.70;99.90;;;;;;5053066;28;20127;-85
2021/11/18 12:13:17;;;;;;;42.03;13.93;;;10.80;99.90;;;;;;5040706;28;20083;-86
2021/11/18 12:15:51;;;;;;;44.00;12.77;;;10.90;99.90;;;;;;5051551;28;20087;-85
2021/11/18 12:18:28;;;;;;;36.78;12.52;;;10.90;99.90;;;;;;5054289;28;20434;-85
2021/11/18 12:20:57;;;;;;;44.60;11.55;;;10.90;99.90;;;;;;5072895;28;20044;-85
2021/11/18 12:24:06;;;;;;;48.35;11.45;;;10.80;99.90;;;;;;5068108;28;20128;-85
2021/11/18 12:26:54;;;;;;;45.40;12.13;;;10.80;99.90;;;;;;5084116;28;20045;-85
2021/11/18 12:29:47;;;;;;;35.22;11.50;;;10.70;99.90;;;;;;5089108;28;20049;-86
2021/11/18 12:32:16;;;;;;;36.58;12.02;;;10.70;99.90;;;;;;5087383;28;20041;-85
2021/11/18 12:35:11;;;;;;;42.55;10.80;;;10.60;99.90;;;;;;5071755;28;20110;-85
2021/11/18 12:37:46;;;;;;;33.38;9.98;;;10.60;99.90;;;;;;5059466;28;20102;-85
2021/11/18 12:40:32;;;;;;;48.90;12.07;;;10.60;99.90;;;;;;5057709;28;20053;-85
2021/11/18 12:43:22;;;;;;;38.03;10.55;;;10.60;99.90;;;;;;5056471;28;20091;-85
2021/11/18 12:46:19;;;;;;;37.10;11.45;;;10.60;99.90;;;;;;5045063;28;20068;-86
2021/11/18 12:48:52;;;;;;;46.55;10.68;;;10.50;99.90;;;;;;5054580;28;20061;-85
2021/11/18 12:51:41;;;;;;;44.13;10.52;;;10.50;99.90;;;;;;5054557;28;20057;-86
2021/11/18 12:54:08;;;;;;;35.40;10.10;;;10.50;99.90;;;;;;5064306;28;20423;-85
2021/11/18 12:56:57;;;;;;;32.97;10.25;;;10.60;99.90;;;;;;5055184;28;20071;-86
2021/11/18 12:59:36;;;;;;;49.58;10.52;;;10.50;99.90;;;;;;5054933;28;20060;-85
2021/11/18 13:02:11;;;;;;;44.88;9.90;;;10.50;99.90;;;;;;5062341;28;20056;-85
2021/11/18 13:04:58;;;;;;;36.00;10.02;;;10.50;99.90;;;;;;5058633;28;20037;-83
2021/11/18 13:07:40;;;;;;;38.70;10.70;;;10.40;99.90;;;;;;5058071;28;20156;-83
2021/11/18 13:10:19;;;;;;;40.65;11.13;;;10.40;99.90;;;;;;5052674;28;20136;-83
2021/11/18 13:13:03;;;;;;;33.13;11.23;;;10.40;99.90;;;;;;5054892;28;20098;-83
2021/11/18 13:15:45;;;;;;;43.13;10.68;;;10.40;99.90;;;;;;5057669;28;20082;-83
2021/11/18 13:18:33;;;;;;;42.10;10.52;;;10.40;99.90;;;;;;5057105;28;20056;-84
2021/11/18 13:21:22;;;;;;;46.28;11.13;;;10.40;99.90;;;;;;5051408;28;20115;-84
2021/11/18 13:24:02;;;;;;;34.03;9.70;;;10.30;99.90;;;;;;5052598;28;20405;-83
2021/11/18 13:26:33;;;;;;;40.95;10.20;;;10.20;99.90;;;;;;5056216;28;20087;-84
2021/11/18 13:29:12;;;;;;;33.15;10.85;;;10.20;99.90;;;;;;5052792;28;20053;-84
2021/11/18 13:31:49;;;;;;;42.00;10.35;;;10.10;99.90;;;;;;5059365;28;20667;-84
2021/11/18 13:35:01;;;;;;;40.67;11.02;;;10.10;99.90;;;;;;5052735;28;20056;-84
2021/11/18 13:37:32;;;;;;;51.67;10.48;;;10.00;99.90;;;;;;5054107;28;20081;-83
2021/11/18 13:40:09;;;;;;;34.70;10.55;;;10.00;99.90;;;;;;5048084;28;20037;-84
2021/11/18 13:42:43;;;;;;;39.92;10.20;;;9.90;99.90;;;;;;5052378;28;20103;-84
2021/11/18 13:45:32;;;;;;;33.93;10.07;;;9.90;99.90;;;;;;5056583;28;20064;-83
2021/11/18 13:48:07;;;;;;;40.55;10.93;;;9.90;99.90;;;;;;5060311;28;20056;-83
2021/11/18 13:50:51;;;;;;;47.38;11.90;;;9.80;99.90;;;;;;5056667;28;20101;-84
2021/11/18 13:53:41;;;;;;;50.45;10.88;;;9.80;99.90;;;;;;5049849;28;20052;-84
2021/11/18 13:56:31;;;;;;;40.60;10.25;;;9.80;99.90;;;;;;5055128;28;20366;-83
2021/11/18 13:59:18;;;;;;;47.85;10.90;;;9.90;99.90;;;;;;5054736;28;20103;-84
2021/11/18 14:01:51;;;;;;;32.88;8.82;;;9.80;99.90;;;;;;5053431;28;20200;-84
2021/11/18 14:04:45;;;;;;;38.10;10.85;;;9.90;99.90;;;;;;5051924;28;20068;-83
2021/11/18 14:07:14;;;;;;;37.65;10.38;;;9.80;99.90;;;;;;5054729;28;20045;-84
2021/11/18 14:10:01;;;;;;;37.13;8.90;;;9.80;99.90;;;;;;5056305;28;20077;-84
2021/11/18 14:12:34;;;;;;;29.60;8.40;;;9.80;99.90;;;;;;5052930;28;20401;-83
2021/11/18 14:15:57;;;;;;;47.75;9.00;;;9.80;99.90;;;;;;5054284;28;20049;-84
2021/11/18 14:18:27;;;;;;;34.30;9.60;;;9.80;99.90;;;;;;5033107;28;20056;-84
2021/11/18 14:21:11;;;;;;;34.90;9.15;;;9.80;99.90;;;;;;5047372;28;20107;-83
2021/11/18 14:24:00;;;;;;;44.28;8.57;;;9.80;99.90;;;;;;5048680;28;20598;-84
2021/11/18 14:30:10;;;;;;;53.92;9.98;;;9.70;99.90;;;;;;5016371;28;20057;-87
2021/11/18 14:32:59;;;;;;;41.97;10.35;;;9.70;99.90;;;;;;5018021;28;20485;-88
2021/11/18 14:35:26;;;;;;;33.28;9.95;;;9.70;99.90;;;;;;5015693;28;20524;-88
2021/11/18 14:38:17;;;;;;;51.47;9.55;;;9.70;99.90;;;;;;5037718;28;20077;-87
2021/11/18 14:41:09;;;;;;;45.00;10.60;;;9.70;99.90;;;;;;5018485;28;20398;-87
2021/11/18 14:43:53;;;;;;;38.00;10.35;;;9.70;99.90;;;;;;5016479;28;20285;-88
2021/11/18 14:46:44;;;;;;;44.08;10.32;;;9.60;99.90;;;;;;5037983;28;20410;-87
2021/11/18 14:49:43;;;;;;;46.25;9.13;;;9.70;99.90;;;;;;5017073;28;20099;-87
2021/11/18 14:52:34;;;;;;;43.13;10.88;;;9.60;99.90;;;;;;5039735;28;20073;-87